Terminal Aerodrome Forecast
Issued by NWS

Home | Current Version | Previous Version | Graphics & Text | Print | Product List | Glossary On
Versions: 1 2 3 4 5 6 7 8 9 10 11 12 13
665
FTUS41 KCLE 252339
TAFFDY
TAF
KFDY 252339Z 2600/2624 27010KT P6SM BKN080
     FM260200 25005KT P6SM SCT080
     FM261400 25015G25KT P6SM BKN045
     FM261800 27015G25KT P6SM BKN060=

USA.gov is the U.S. government's official web portal to all federal, state and local government web resources and services.